createdAt,value
2017-02-15T00:00:39.284Z,63.6
2017-02-15T00:01:19.790Z,64.27
2017-02-15T00:02:00.303Z,64.37
2017-02-15T00:02:40.815Z,64.27
2017-02-15T00:03:21.290Z,64.08
2017-02-15T00:04:01.805Z,63.6
2017-02-15T00:04:42.299Z,63.98
2017-02-15T00:05:22.762Z,63.79
2017-02-15T00:06:03.250Z,63.6
2017-02-15T00:06:43.783Z,63.98
2017-02-15T00:07:24.238Z,64.17
2017-02-15T00:08:04.762Z,64.17
2017-02-15T00:08:45.226Z,63.98
2017-02-15T00:09:25.697Z,63.51
2017-02-15T00:10:06.202Z,63.7
2017-02-15T00:10:46.703Z,63.23
2017-02-15T00:11:27.245Z,63.7
2017-02-15T00:12:07.769Z,63.79
2017-02-15T00:12:48.251Z,63.51
2017-02-15T00:13:28.722Z,63.7
2017-02-15T00:14:09.254Z,63.6
2017-02-15T00:14:49.755Z,63.7
2017-02-15T00:15:30.258Z,63.7
2017-02-15T00:16:10.793Z,64.17
2017-02-15T00:16:51.305Z,63.6
2017-02-15T00:17:31.849Z,63.6
2017-02-15T00:18:12.282Z,64.08
2017-02-15T00:18:52.863Z,64.17
2017-02-15T00:19:33.311Z,63.79
2017-02-15T00:20:13.836Z,63.89
2017-02-15T00:20:54.330Z,63.79
2017-02-15T00:21:34.839Z,63.89
2017-02-15T00:22:15.283Z,64.08
2017-02-15T00:22:55.846Z,64.27
2017-02-15T00:23:36.374Z,64.27
2017-02-15T00:24:16.868Z,64.17
2017-02-15T00:24:57.390Z,64.46
2017-02-15T00:25:37.836Z,64.27
2017-02-15T00:26:18.640Z,64.56
2017-02-15T00:26:59.109Z,63.98
2017-02-15T00:27:39.621Z,64.17
2017-02-15T00:28:20.065Z,64.27
2017-02-15T00:29:00.694Z,64.17
2017-02-15T00:29:41.492Z,64.37
2017-02-15T00:30:22.032Z,64.46
2017-02-15T00:31:02.464Z,63.6
2017-02-15T00:31:43.120Z,63.98
2017-02-15T00:32:23.469Z,64.37
2017-02-15T00:33:03.995Z,64.37
2017-02-15T00:33:44.471Z,64.17
2017-02-15T00:34:25.067Z,64.27
2017-02-15T00:35:05.637Z,64.17
2017-02-15T00:35:46.301Z,64.27
2017-02-15T00:36:26.869Z,64.27
2017-02-15T00:37:07.415Z,64.27
2017-02-15T00:37:47.849Z,64.27
2017-02-15T00:38:28.448Z,64.17
2017-02-15T00:39:08.884Z,64.37
2017-02-15T00:39:49.440Z,64.37
2017-02-15T00:40:29.937Z,64.27
2017-02-15T00:41:10.407Z,64.37
2017-02-15T00:41:50.991Z,64.84
2017-02-15T00:42:31.548Z,64.75
2017-02-15T00:43:12.072Z,64.65
2017-02-15T00:43:52.649Z,64.84
2017-02-15T00:44:33.066Z,64.84
2017-02-15T00:45:13.602Z,64.27
2017-02-15T00:45:54.167Z,64.75
2017-02-15T00:46:34.712Z,64.84
2017-02-15T00:47:15.207Z,64.56
2017-02-15T00:47:55.749Z,64.84
2017-02-15T00:48:36.212Z,64.75
2017-02-15T00:49:16.656Z,64.84
2017-02-15T00:49:57.200Z,64.62
2017-02-15T00:50:37.618Z,65.47
2017-02-15T00:51:18.136Z,65.47
2017-02-15T00:51:58.636Z,65.03
2017-02-15T00:52:39.071Z,65.03
2017-02-15T00:53:19.541Z,65.22
2017-02-15T00:54:00.063Z,65.6
2017-02-15T00:54:40.552Z,65.19
2017-02-15T00:55:21.072Z,66.08
2017-02-15T00:56:01.546Z,65.98
2017-02-15T00:56:42.068Z,65.69
2017-02-15T00:57:22.596Z,65.79
2017-02-15T00:58:03.087Z,65.41
2017-02-15T00:58:43.544Z,65.56
2017-02-15T00:59:24.060Z,65.56
2017-02-15T01:00:04.539Z,65.66
2017-02-15T01:00:45.015Z,65.85
2017-02-15T01:01:25.537Z,65.56
2017-02-15T01:02:05.993Z,65.66
2017-02-15T01:02:46.571Z,65.66
2017-02-15T01:03:26.977Z,65.79
2017-02-15T01:04:07.493Z,65.75
2017-02-15T01:04:48.010Z,65.88
2017-02-15T01:05:28.496Z,65.79
2017-02-15T01:06:09.025Z,65.75
2017-02-15T01:06:49.554Z,65.47
2017-02-15T01:07:30.081Z,65.75
2017-02-15T01:08:10.539Z,65.75
2017-02-15T01:08:51.003Z,65.79
2017-02-15T01:09:31.555Z,65.6
2017-02-15T01:10:12.110Z,65.5
2017-02-15T01:10:52.753Z,65.47
2017-02-15T01:11:33.285Z,65.5
2017-02-15T01:12:13.884Z,65.41
2017-02-15T01:12:54.289Z,65.5
2017-02-15T01:13:34.806Z,65.5
2017-02-15T01:14:15.316Z,65.69
2017-02-15T01:14:55.756Z,65.66
2017-02-15T01:15:36.309Z,64.94
2017-02-15T01:16:16.787Z,64.81
2017-02-15T01:16:57.236Z,64.75
2017-02-15T01:17:37.797Z,64.46
2017-02-15T01:18:18.299Z,64.84
2017-02-15T01:18:58.897Z,64.62
2017-02-15T01:19:39.380Z,64.75
2017-02-15T01:20:19.823Z,64.75
2017-02-15T01:21:00.279Z,65.03
2017-02-15T01:21:40.855Z,64.56
2017-02-15T01:22:21.304Z,65.03
2017-02-15T01:23:01.786Z,65.37
2017-02-15T01:23:42.383Z,65.6
2017-02-15T01:24:22.804Z,65.5
2017-02-15T01:25:03.273Z,65.5
2017-02-15T01:25:43.803Z,65.69
2017-02-15T01:26:24.283Z,65
2017-02-15T01:27:06.197Z,65.12
2017-02-15T01:28:55.416Z,66.08
2017-02-15T01:29:35.955Z,65.66
2017-02-15T01:30:16.493Z,65.66
2017-02-15T01:30:56.936Z,65.95
2017-02-15T01:31:37.483Z,65.69
2017-02-15T01:32:17.970Z,65.79
2017-02-15T01:32:58.487Z,65.69
2017-02-15T01:33:39.392Z,65.75
2017-02-15T01:34:19.895Z,65.98
2017-02-15T01:35:00.405Z,65.56
2017-02-15T01:35:40.890Z,65.6
2017-02-15T01:36:21.406Z,65.5
2017-02-15T01:37:01.905Z,65.95
2017-02-15T01:37:42.445Z,65.75
2017-02-15T01:38:22.879Z,65.88
2017-02-15T01:39:03.368Z,65.95
2017-02-15T01:39:43.873Z,65.56
2017-02-15T01:40:24.409Z,65.88
2017-02-15T01:41:04.883Z,65.66
2017-02-15T01:41:45.365Z,65.79
2017-02-15T01:42:25.885Z,65.85
2017-02-15T01:43:06.363Z,65.6
2017-02-15T01:43:46.871Z,65.98
2017-02-15T01:44:27.373Z,65.66
2017-02-15T01:45:07.856Z,65.41
2017-02-15T01:45:48.355Z,65.69
2017-02-15T01:46:28.867Z,65.88
2017-02-15T01:47:09.335Z,65.98
2017-02-15T01:47:49.864Z,65.88
2017-02-15T01:48:30.288Z,65.85
2017-02-15T01:49:10.828Z,66.14
2017-02-15T01:49:51.277Z,66.04
2017-02-15T01:50:31.803Z,66.52
2017-02-15T01:51:12.314Z,66.14
2017-02-15T01:51:52.783Z,66.46
2017-02-15T01:52:33.244Z,66.27
2017-02-15T01:53:13.701Z,66.17
2017-02-15T01:53:54.536Z,66.14
2017-02-15T01:54:35.070Z,66.42
2017-02-15T01:55:15.561Z,66.71
2017-02-15T01:55:56.076Z,66.52
2017-02-15T01:56:36.575Z,66.8
2017-02-15T01:57:17.040Z,66.14
2017-02-15T01:57:57.546Z,66.52
2017-02-15T01:58:38.058Z,66.52
2017-02-15T01:59:18.545Z,66.89
2017-02-15T01:59:59.034Z,67.02
2017-02-15T02:00:39.585Z,66.99
2017-02-15T02:01:20.059Z,66.55
2017-02-15T02:02:00.549Z,66.89
2017-02-15T02:02:41.041Z,66.8
2017-02-15T02:03:21.507Z,66.61
2017-02-15T02:04:01.999Z,66.33
2017-02-15T02:04:42.639Z,66.23
2017-02-15T02:05:22.994Z,65.85
2017-02-15T02:06:03.496Z,65.75
2017-02-15T02:06:44.021Z,65.66
2017-02-15T02:07:24.478Z,66.04
2017-02-15T02:08:04.992Z,65.85
2017-02-15T02:08:45.468Z,66.14
2017-02-15T02:09:26.029Z,65.75
2017-02-15T02:10:06.566Z,65.56
2017-02-15T02:10:47.006Z,65.56
2017-02-15T02:11:27.482Z,65.75
2017-02-15T02:12:07.958Z,65.56
2017-02-15T02:12:48.449Z,65.6
2017-02-15T02:13:28.992Z,65.66
2017-02-15T02:14:09.465Z,65.85
2017-02-15T02:14:49.966Z,65.95
2017-02-15T02:15:30.457Z,65.85
2017-02-15T02:16:10.932Z,65.95
2017-02-15T02:16:51.449Z,66.04
2017-02-15T02:17:31.896Z,66.23
2017-02-15T02:18:12.378Z,65.95
2017-02-15T02:18:52.909Z,66.23
2017-02-15T02:19:33.405Z,66.8
2017-02-15T02:20:13.862Z,66.8
2017-02-15T02:20:54.342Z,66.89
2017-02-15T02:21:34.848Z,66.8
2017-02-15T02:22:15.384Z,66.89
2017-02-15T02:22:55.869Z,66.8
2017-02-15T02:23:36.364Z,66.71
2017-02-15T02:24:16.887Z,66.8
2017-02-15T02:24:57.443Z,66.8
2017-02-15T02:25:37.905Z,66.89
2017-02-15T02:26:18.427Z,67.08
2017-02-15T02:26:58.866Z,67.18
2017-02-15T02:27:39.371Z,66.89
2017-02-15T02:28:20.359Z,67.08
2017-02-15T02:29:00.886Z,66.89
2017-02-15T02:29:41.417Z,66.8
2017-02-15T02:30:21.900Z,66.99
2017-02-15T02:31:02.350Z,66.71
2017-02-15T02:31:42.847Z,66.8
2017-02-15T02:32:23.507Z,66.52
2017-02-15T02:33:03.908Z,66.89
2017-02-15T02:33:44.418Z,66.71
2017-02-15T02:34:24.951Z,66.71
2017-02-15T02:35:05.395Z,66.89
2017-02-15T02:35:45.834Z,66.89
2017-02-15T02:36:26.317Z,66.89
2017-02-15T02:37:07.236Z,67.08
2017-02-15T02:37:47.736Z,66.99
2017-02-15T02:38:28.217Z,66.99
2017-02-15T02:39:08.704Z,67.18
2017-02-15T02:39:49.181Z,67.08
2017-02-15T02:40:29.654Z,66.99
2017-02-15T02:41:10.175Z,67.18
2017-02-15T02:41:50.628Z,67.18
2017-02-15T02:42:31.123Z,67.56
2017-02-15T02:43:11.591Z,67.37
2017-02-15T02:43:52.175Z,67.37
2017-02-15T02:44:32.599Z,67.27
2017-02-15T02:45:13.095Z,67.08
2017-02-15T02:45:53.647Z,66.8
2017-02-15T02:46:34.182Z,67.08
2017-02-15T02:47:14.627Z,67.08
2017-02-15T02:47:55.152Z,66.8
2017-02-15T02:48:35.623Z,66.61
2017-02-15T02:49:18.319Z,66.89
2017-02-15T02:49:58.762Z,66.61
2017-02-15T02:50:39.242Z,66.99
2017-02-15T02:51:19.775Z,66.89
2017-02-15T02:52:00.278Z,66.99
2017-02-15T02:52:40.726Z,67.08
2017-02-15T02:53:21.250Z,67.46
2017-02-15T02:54:01.734Z,67.18
2017-02-15T02:54:43.287Z,67.08
2017-02-15T02:55:23.810Z,66.99
2017-02-15T02:56:04.222Z,67.08
2017-02-15T02:56:44.730Z,66.99
2017-02-15T02:57:25.215Z,67.18
2017-02-15T02:58:05.686Z,67.27
2017-02-15T02:58:46.137Z,67.56
2017-02-15T02:59:26.682Z,67.08
2017-02-15T03:00:07.149Z,67.08
2017-02-15T03:00:47.668Z,66.8
2017-02-15T03:01:28.124Z,66.71
2017-02-15T03:02:08.606Z,66.71
2017-02-15T03:02:49.155Z,67.08
2017-02-15T03:03:29.649Z,66.99
2017-02-15T03:04:10.166Z,66.71
2017-02-15T03:04:50.658Z,66.89
2017-02-15T03:05:31.151Z,66.8
2017-02-15T03:06:11.639Z,66.99
2017-02-15T03:06:52.172Z,66.89
2017-02-15T03:07:32.666Z,66.71
2017-02-15T03:08:13.155Z,66.89
2017-02-15T03:08:53.691Z,66.61
2017-02-15T03:09:34.197Z,66.89
2017-02-15T03:10:14.655Z,66.14
2017-02-15T03:10:55.145Z,66.42
2017-02-15T03:11:35.644Z,66.61
2017-02-15T03:12:16.139Z,66.61
2017-02-15T03:12:56.670Z,66.04
2017-02-15T03:13:37.157Z,66.42
2017-02-15T03:14:17.594Z,65.75
2017-02-15T03:14:58.145Z,65.95
2017-02-15T03:15:38.641Z,65.95
2017-02-15T03:16:19.084Z,66.14
2017-02-15T03:16:59.583Z,66.23
2017-02-15T03:17:40.244Z,66.14
2017-02-15T03:18:20.577Z,66.33
2017-02-15T03:19:01.056Z,66.14
2017-02-15T03:19:41.593Z,65.75
2017-02-15T03:20:22.081Z,65.75
2017-02-15T03:21:02.656Z,65.95
2017-02-15T03:21:43.091Z,65.85
2017-02-15T03:22:23.566Z,66.04
2017-02-15T03:23:04.090Z,66.23
2017-02-15T03:23:44.562Z,66.04
2017-02-15T03:24:25.030Z,66.14
2017-02-15T03:25:05.540Z,65.66
2017-02-15T03:25:46.044Z,65.47
2017-02-15T03:26:26.567Z,65.66
2017-02-15T03:27:07.016Z,65.95
2017-02-15T03:27:47.500Z,65.66
2017-02-15T03:28:28.030Z,65.75
2017-02-15T03:29:08.514Z,66.14
2017-02-15T03:29:49.025Z,65.95
2017-02-15T03:30:29.493Z,66.42
2017-02-15T03:31:10.055Z,66.42
2017-02-15T03:31:50.459Z,65.85
2017-02-15T03:32:30.931Z,66.14
2017-02-15T03:33:11.420Z,66.52
2017-02-15T03:33:51.933Z,65.85
2017-02-15T03:34:32.457Z,66.23
2017-02-15T03:35:12.901Z,66.14
2017-02-15T03:35:53.394Z,66.23
2017-02-15T03:36:33.990Z,65.95
2017-02-15T03:37:14.395Z,66.14
2017-02-15T03:37:54.909Z,66.14
2017-02-15T03:38:35.426Z,66.61
2017-02-15T03:39:15.917Z,66.71
2017-02-15T03:39:56.393Z,66.52
2017-02-15T03:40:36.901Z,66.52
2017-02-15T03:41:17.371Z,66.33
2017-02-15T03:41:57.901Z,66.23
2017-02-15T03:42:38.379Z,66.14
2017-02-15T03:43:18.880Z,66.42
2017-02-15T03:43:59.322Z,66.52
2017-02-15T03:44:39.900Z,66.71
2017-02-15T03:45:20.331Z,66.04
2017-02-15T03:46:00.882Z,66.23
2017-02-15T03:46:41.354Z,66.42
2017-02-15T03:47:21.850Z,66.14
2017-02-15T03:48:02.304Z,65.95
2017-02-15T03:48:42.845Z,65.56
2017-02-15T03:49:23.299Z,65.75
2017-02-15T03:50:03.853Z,66.04
2017-02-15T03:50:44.315Z,66.04
2017-02-15T03:51:24.792Z,65.75
2017-02-15T03:52:05.268Z,65.66
2017-02-15T03:52:45.754Z,65.56
2017-02-15T03:53:26.256Z,65.95
2017-02-15T03:54:06.723Z,65.95
2017-02-15T03:54:47.243Z,66.23
2017-02-15T03:55:27.736Z,66.33
2017-02-15T03:56:08.268Z,65.95
2017-02-15T03:56:48.759Z,66.14
2017-02-15T03:57:29.264Z,66.33
2017-02-15T03:58:09.783Z,66.04
2017-02-15T03:58:50.274Z,66.52
2017-02-15T03:59:30.711Z,66.04
2017-02-15T04:00:11.235Z,66.52
2017-02-15T04:00:51.701Z,66.52
2017-02-15T04:01:32.208Z,66.8
2017-02-15T04:02:12.686Z,65.95
2017-02-15T04:02:53.229Z,66.14
2017-02-15T04:03:33.684Z,66.23
2017-02-15T04:04:14.204Z,66.42
2017-02-15T04:04:54.641Z,66.48
2017-02-15T04:05:35.148Z,66.96
2017-02-15T04:06:15.803Z,67.14
2017-02-15T04:06:56.297Z,67.24
2017-02-15T04:07:36.807Z,67.62
2017-02-15T04:08:17.327Z,67.43
2017-02-15T04:08:57.797Z,67.24
2017-02-15T04:09:38.289Z,67.14
2017-02-15T04:10:18.828Z,67.14
2017-02-15T04:10:59.289Z,67.14
2017-02-15T04:11:39.834Z,67.24
2017-02-15T04:12:20.280Z,66.86
2017-02-15T04:13:00.785Z,66.96
2017-02-15T04:13:41.326Z,66.67
2017-02-15T04:14:21.792Z,66.48
2017-02-15T04:15:02.289Z,66.58
2017-02-15T04:15:42.788Z,66.39
2017-02-15T04:16:23.321Z,66.2
2017-02-15T04:17:03.906Z,66.2
2017-02-15T04:17:44.266Z,66.1
2017-02-15T04:18:25.942Z,65.72
2017-02-15T04:19:06.557Z,65.44
2017-02-15T04:19:47.262Z,65.53
2017-02-15T04:20:27.714Z,65.53
2017-02-15T04:21:08.291Z,65.44
2017-02-15T04:21:48.987Z,65.34
2017-02-15T04:22:30.085Z,65.06
2017-02-15T04:23:12.579Z,65.34
2017-02-15T04:23:52.701Z,65.63
2017-02-15T04:24:35.362Z,65.06
2017-02-15T04:25:16.355Z,65.06
2017-02-15T04:25:57.823Z,65.44
2017-02-15T04:26:37.784Z,65.25
2017-02-15T04:27:18.304Z,65.34
2017-02-15T04:27:58.761Z,65.53
2017-02-15T04:28:39.230Z,65.44
2017-02-15T04:29:19.735Z,65.72
2017-02-15T04:30:00.295Z,65.53
2017-02-15T04:30:40.741Z,65.34
2017-02-15T04:31:21.247Z,65.53
2017-02-15T04:32:01.741Z,65.25
2017-02-15T04:32:42.235Z,65.53
2017-02-15T04:33:22.740Z,65.63
2017-02-15T04:34:03.214Z,65.44
2017-02-15T04:34:43.774Z,65.16
2017-02-15T04:35:24.298Z,65.72
2017-02-15T04:36:04.814Z,65.44
2017-02-15T04:36:45.217Z,65.72
2017-02-15T04:37:25.745Z,65.44
2017-02-15T04:38:06.232Z,65.34
2017-02-15T04:38:46.691Z,65.53
2017-02-15T04:39:27.208Z,65.44
2017-02-15T04:40:07.721Z,65.25
2017-02-15T04:40:48.164Z,65.53
2017-02-15T04:41:28.683Z,65.53
2017-02-15T04:42:09.267Z,64.97
2017-02-15T04:42:49.629Z,64.68
2017-02-15T04:43:30.126Z,64.68
2017-02-15T04:44:10.937Z,65.63
2017-02-15T04:44:51.364Z,65.25
2017-02-15T04:45:31.864Z,65.63
2017-02-15T04:46:12.377Z,64.97
2017-02-15T04:46:52.851Z,64.78
2017-02-15T04:47:33.327Z,64.49
2017-02-15T04:48:13.863Z,64.97
2017-02-15T04:48:54.326Z,64.87
2017-02-15T04:49:34.792Z,65.34
2017-02-15T04:50:15.280Z,65.06
2017-02-15T04:50:55.763Z,65.16
2017-02-15T04:51:36.311Z,65.06
2017-02-15T04:52:16.780Z,65.34
2017-02-15T04:52:57.229Z,65.34
2017-02-15T04:53:37.760Z,65.72
2017-02-15T04:54:18.286Z,65.63
2017-02-15T04:54:58.736Z,65.82
2017-02-15T04:55:39.349Z,65.72
2017-02-15T04:56:19.887Z,65.63
2017-02-15T04:57:00.385Z,65.91
2017-02-15T04:57:40.873Z,65.63
2017-02-15T04:58:21.331Z,65.72
2017-02-15T04:59:01.834Z,65.53
2017-02-15T04:59:42.322Z,65.72
2017-02-15T05:00:22.840Z,65.63
2017-02-15T05:01:03.329Z,65.82
2017-02-15T05:01:43.824Z,65.91
2017-02-15T05:02:24.629Z,65.72
2017-02-15T05:03:05.056Z,66.01
2017-02-15T05:03:45.591Z,66.1
2017-02-15T05:04:26.054Z,65.53
2017-02-15T05:05:06.597Z,65.53
2017-02-15T05:05:47.059Z,65.82
2017-02-15T05:06:27.565Z,65.53
2017-02-15T05:07:08.039Z,65.82
2017-02-15T05:07:48.540Z,66.01
2017-02-15T05:08:29.013Z,65.82
2017-02-15T05:09:09.512Z,65.91
2017-02-15T05:09:50.000Z,66.01
2017-02-15T05:10:30.498Z,65.53
2017-02-15T05:11:10.978Z,65.44
2017-02-15T05:11:51.536Z,65.82
2017-02-15T05:12:31.986Z,65.63
2017-02-15T05:13:12.498Z,65.72
2017-02-15T05:13:52.933Z,65.53
2017-02-15T05:14:33.508Z,65.63
2017-02-15T05:15:13.945Z,65.82
2017-02-15T05:15:54.489Z,65.82
2017-02-15T05:16:34.942Z,65.53
2017-02-15T05:17:15.405Z,65.72
2017-02-15T05:17:55.949Z,65.91
2017-02-15T05:18:36.485Z,65.72
2017-02-15T05:19:16.975Z,65.91
2017-02-15T05:19:57.481Z,65.63
2017-02-15T05:20:38.098Z,65.63
2017-02-15T05:21:18.654Z,66.2
2017-02-15T05:21:59.164Z,65.63
2017-02-15T05:22:39.628Z,66.39
2017-02-15T05:23:20.128Z,66.2
2017-02-15T05:24:00.594Z,65.72
2017-02-15T05:24:41.113Z,66.2
2017-02-15T05:25:21.613Z,66.1
2017-02-15T05:26:02.148Z,65.72
2017-02-15T05:26:42.576Z,65.72
2017-02-15T05:27:23.063Z,66.2
2017-02-15T05:28:03.558Z,66.1
2017-02-15T05:28:44.074Z,66.2
2017-02-15T05:29:24.534Z,65.82
2017-02-15T05:31:25.300Z,65.63
2017-02-15T05:32:05.774Z,66.2
2017-02-15T05:32:46.357Z,66.2
2017-02-15T05:33:26.856Z,66.2
2017-02-15T05:34:07.319Z,66.29
2017-02-15T05:34:47.889Z,66.01
2017-02-15T05:35:28.261Z,66.2
2017-02-15T05:36:08.827Z,66.2
2017-02-15T05:36:49.281Z,66.2
2017-02-15T05:37:29.749Z,66.2
2017-02-15T05:38:10.256Z,66.39
2017-02-15T05:38:50.708Z,65.82
2017-02-15T05:39:31.223Z,66.1
2017-02-15T05:40:11.705Z,66.29
2017-02-15T05:40:52.177Z,66.48
2017-02-15T05:41:32.647Z,66.29
2017-02-15T05:42:13.100Z,66.01
2017-02-15T05:42:53.618Z,65.91
2017-02-15T05:43:34.144Z,65.53
2017-02-15T05:44:14.662Z,66.01
2017-02-15T05:44:55.105Z,66.1
2017-02-15T05:45:35.647Z,66.29
2017-02-15T05:46:16.121Z,66.2
2017-02-15T05:46:56.667Z,66.2
2017-02-15T05:47:37.208Z,66.1
2017-02-15T05:48:17.650Z,66.29
2017-02-15T05:48:58.162Z,66.1
2017-02-15T05:49:38.889Z,66.01
2017-02-15T05:50:19.420Z,66.2
2017-02-15T05:50:59.891Z,66.01
2017-02-15T05:51:40.364Z,66.1
2017-02-15T05:52:20.859Z,66.1
2017-02-15T05:53:01.333Z,66.2
2017-02-15T05:53:41.886Z,66.1
2017-02-15T05:54:22.343Z,66.1
2017-02-15T05:55:02.858Z,66.2
2017-02-15T05:55:43.334Z,66.1
2017-02-15T05:56:23.812Z,66.01
2017-02-15T05:57:05.242Z,66.01
2017-02-15T05:57:49.355Z,66.01
2017-02-15T05:58:29.857Z,66.1
2017-02-15T05:59:10.310Z,66.29
2017-02-15T05:59:51.393Z,66.39
2017-02-15T06:00:31.345Z,65.82
2017-02-15T06:01:12.638Z,65.91
2017-02-15T06:01:53.123Z,65.72
2017-02-15T06:02:33.627Z,66.1
2017-02-15T06:03:14.125Z,66.29
2017-02-15T06:03:54.579Z,66.2
2017-02-15T06:04:35.071Z,65.72
2017-02-15T06:05:15.558Z,66.01
2017-02-15T06:05:56.417Z,65.91
2017-02-15T06:06:36.982Z,66.01
2017-02-15T06:07:17.426Z,65.72
2017-02-15T06:07:57.936Z,65.72
2017-02-15T06:08:38.414Z,66.2
2017-02-15T06:09:18.881Z,65.82
2017-02-15T06:09:59.477Z,66.1
2017-02-15T06:10:39.942Z,65.91
2017-02-15T06:11:20.467Z,66.01
2017-02-15T06:12:01.136Z,65.63
2017-02-15T06:12:41.596Z,65.91
2017-02-15T06:13:22.052Z,65.82
2017-02-15T06:14:02.584Z,66.01
2017-02-15T06:14:43.088Z,65.63
2017-02-15T06:15:23.551Z,65.91
2017-02-15T06:16:04.060Z,65.72
2017-02-15T06:16:44.600Z,66.1
2017-02-15T06:17:25.094Z,65.91
2017-02-15T06:18:05.628Z,66.1
2017-02-15T06:18:46.123Z,66.01
2017-02-15T06:19:26.639Z,66.77
2017-02-15T06:20:07.110Z,66.96
2017-02-15T06:20:47.574Z,66.67
2017-02-15T06:21:28.097Z,66.58
2017-02-15T06:22:08.716Z,66.77
2017-02-15T06:22:49.262Z,67.05
2017-02-15T06:23:29.727Z,67.33
2017-02-15T06:24:10.243Z,68.57
2017-02-15T06:24:50.707Z,69.13
2017-02-15T06:25:31.189Z,69.52
2017-02-15T06:26:11.740Z,70.09
2017-02-15T06:26:52.222Z,70.18
2017-02-15T06:27:32.768Z,69.99
2017-02-15T06:28:13.179Z,70.75
2017-02-15T06:28:53.791Z,70.37
2017-02-15T06:29:34.286Z,71.7
2017-02-15T06:30:14.792Z,71.51
2017-02-15T06:30:55.287Z,71.41
2017-02-15T06:31:35.776Z,71.7
2017-02-15T06:32:16.283Z,71.03
2017-02-15T06:32:56.856Z,71.8
2017-02-15T06:33:37.334Z,72.27
2017-02-15T06:34:17.854Z,72.55
2017-02-15T06:34:58.551Z,72.36
2017-02-15T06:35:39.023Z,72.27
2017-02-15T06:36:19.532Z,71.89
2017-02-15T06:37:00.065Z,72.36
2017-02-15T06:37:40.563Z,72.55
2017-02-15T06:38:21.042Z,73.22
2017-02-15T06:39:01.537Z,73.12
2017-02-15T06:39:42.026Z,72.68
2017-02-15T06:40:22.493Z,71.41
2017-02-15T06:41:03.023Z,70.78
2017-02-15T06:41:43.493Z,70.94
2017-02-15T06:42:24.021Z,70.18
2017-02-15T06:43:04.512Z,69.9
2017-02-15T06:43:44.992Z,70.37
2017-02-15T06:44:25.514Z,70.94
2017-02-15T06:45:06.124Z,70.12
2017-02-15T06:45:46.665Z,70.37
2017-02-15T06:46:27.171Z,70.88
2017-02-15T06:47:07.630Z,78
2017-02-15T06:47:48.131Z,83.88
2017-02-15T06:48:28.587Z,86.54
2017-02-15T06:49:09.059Z,87.3
2017-02-15T06:49:49.605Z,88.15
2017-02-15T06:50:30.038Z,88.15
2017-02-15T06:51:10.527Z,88.15
2017-02-15T06:51:51.024Z,87.01
2017-02-15T06:52:31.473Z,82.93
2017-02-15T06:53:12.139Z,80.37
2017-02-15T06:53:52.548Z,77.71
2017-02-15T06:54:33.026Z,75.62
2017-02-15T06:55:14.377Z,74.2
2017-02-15T06:55:54.856Z,73.54
2017-02-15T06:56:35.358Z,73.35
2017-02-15T06:57:15.847Z,72.97
2017-02-15T06:57:56.307Z,72.11
2017-02-15T06:58:36.819Z,71.83
2017-02-15T06:59:17.335Z,70.88
2017-02-15T06:59:57.835Z,71.64
2017-02-15T07:00:38.387Z,70.88
2017-02-15T07:01:18.846Z,71.55
2017-02-15T07:01:59.319Z,70.78
2017-02-15T07:02:39.819Z,70.88
2017-02-15T07:03:20.356Z,70.31
2017-02-15T07:04:00.811Z,69.65
2017-02-15T07:04:41.291Z,70.12
2017-02-15T07:05:21.795Z,70.21
2017-02-15T07:06:02.262Z,70.03
2017-02-15T07:06:42.789Z,69.08
2017-02-15T07:07:23.440Z,69.08
2017-02-15T07:08:03.917Z,68.79
2017-02-15T07:08:44.458Z,68.51
2017-02-15T07:09:24.972Z,68.7
2017-02-15T07:10:05.482Z,68.51
2017-02-15T07:10:45.967Z,69.46
2017-02-15T07:11:26.510Z,69.55
2017-02-15T07:12:06.932Z,70.21
2017-02-15T07:12:47.454Z,70.12
2017-02-15T07:13:27.981Z,70.69
2017-02-15T07:14:08.485Z,72.02
2017-02-15T07:14:48.969Z,71.73
2017-02-15T07:15:29.541Z,72.88
2017-02-15T07:16:10.059Z,73.54
2017-02-15T07:16:50.592Z,74.39
2017-02-15T07:17:31.071Z,74.58
2017-02-15T07:18:11.544Z,75.15
2017-02-15T07:18:52.234Z,77.05
2017-02-15T07:19:32.676Z,87.82
2017-02-15T07:20:13.169Z,92.56
2017-02-15T07:20:53.643Z,94.93
2017-02-15T07:21:34.341Z,97.02
2017-02-15T07:22:14.685Z,97.6
2017-02-15T07:22:55.309Z,98.02
2017-02-15T07:23:35.631Z,98.5
2017-02-15T07:24:16.115Z,98.69
2017-02-15T07:24:56.707Z,99.54
2017-02-15T07:25:37.185Z,99.83
2017-02-15T07:26:18.023Z,99.83
2017-02-15T07:26:58.195Z,99.64
2017-02-15T07:27:38.758Z,98.4
2017-02-15T07:28:19.281Z,94.84
2017-02-15T07:28:59.781Z,90.47
2017-02-15T07:29:40.288Z,87.53
2017-02-15T07:30:20.763Z,84.78
2017-02-15T07:31:01.242Z,86.39
2017-02-15T07:31:41.785Z,94.65
2017-02-15T07:32:22.553Z,97.55
2017-02-15T07:33:03.033Z,98.88
2017-02-15T07:33:43.554Z,99.73
2017-02-15T07:34:24.044Z,99.99
2017-02-15T07:35:04.674Z,99.99
2017-02-15T07:35:45.002Z,99.99
2017-02-15T07:36:25.493Z,99.83
2017-02-15T07:37:06.023Z,99.44
2017-02-15T07:37:46.592Z,98.97
2017-02-15T07:38:27.131Z,98.69
2017-02-15T07:39:07.643Z,96.88
2017-02-15T07:39:48.077Z,92.99
2017-02-15T07:40:28.597Z,90.42
2017-02-15T07:41:09.095Z,87.95
2017-02-15T07:41:49.600Z,87.48
2017-02-15T07:42:30.117Z,85.49
2017-02-15T07:43:10.596Z,84.34
2017-02-15T07:43:51.091Z,82.92
2017-02-15T07:44:31.618Z,81.4
2017-02-15T07:45:12.802Z,80.55
2017-02-15T07:45:53.162Z,79.12
2017-02-15T07:46:33.654Z,78.55
2017-02-15T07:47:14.174Z,77.31
2017-02-15T07:47:54.644Z,77.22
2017-02-15T07:48:35.121Z,76.56
2017-02-15T07:49:15.593Z,76.37
2017-02-15T07:49:56.063Z,75.42
2017-02-15T07:50:36.539Z,75.42
2017-02-15T07:51:17.070Z,75.04
2017-02-15T07:51:57.564Z,74.27
2017-02-15T07:52:38.019Z,73.8
2017-02-15T07:53:18.522Z,73.8
2017-02-15T07:53:59.042Z,73.42
2017-02-15T07:54:39.521Z,73.8
2017-02-15T07:55:20.039Z,73.23
2017-02-15T07:56:00.480Z,72.66
2017-02-15T07:56:41.035Z,73.52
2017-02-15T07:57:21.614Z,73.61
2017-02-15T07:58:02.082Z,73.8
2017-02-15T07:58:42.589Z,73.52
2017-02-15T07:59:23.050Z,73.8
2017-02-15T08:00:03.534Z,74.94
2017-02-15T08:00:44.042Z,75.13
2017-02-15T08:01:24.533Z,75.23
2017-02-15T08:02:04.993Z,74.75
2017-02-15T08:02:45.455Z,74.18
2017-02-15T08:03:25.985Z,74.75
2017-02-15T08:04:06.443Z,75.23
2017-02-15T08:04:46.928Z,75.89
2017-02-15T08:05:27.489Z,81.68
2017-02-15T08:06:07.991Z,87.67
2017-02-15T08:06:48.426Z,87.67
2017-02-15T08:07:28.931Z,89.09
2017-02-15T08:08:09.473Z,89.04
2017-02-15T08:08:49.989Z,91.61
2017-02-15T08:09:30.470Z,94.18
2017-02-15T08:10:10.994Z,95.12
2017-02-15T08:10:51.431Z,96.45
2017-02-15T08:11:31.929Z,98.36
2017-02-15T08:12:12.425Z,98.55
2017-02-15T08:12:52.937Z,96.36
2017-02-15T08:13:33.381Z,91.42
2017-02-15T08:14:13.841Z,87.19
2017-02-15T08:14:54.352Z,83.68
2017-02-15T08:15:34.853Z,81.59
2017-02-15T08:16:15.394Z,80.45
2017-02-15T08:16:55.837Z,81.68
2017-02-15T08:17:36.302Z,90.28
2017-02-15T08:18:16.837Z,95.89
2017-02-15T08:18:57.305Z,98.26
2017-02-15T08:19:37.801Z,99.36
2017-02-15T08:20:18.262Z,99.93
2017-02-15T08:20:58.794Z,99.45
2017-02-15T08:21:39.295Z,98.41
2017-02-15T08:22:19.787Z,99.36
2017-02-15T08:23:00.288Z,99.74
2017-02-15T08:23:40.794Z,99.36
2017-02-15T08:24:21.254Z,99.16
2017-02-15T08:25:01.803Z,98.69
2017-02-15T08:25:42.252Z,97.45
2017-02-15T08:26:22.820Z,93.18
2017-02-15T08:27:03.284Z,87.52
2017-02-15T08:27:43.779Z,83.48
2017-02-15T08:28:24.284Z,80.24
2017-02-15T08:29:04.789Z,77.11
2017-02-15T08:29:45.392Z,75.59
2017-02-15T08:30:25.902Z,74.26
2017-02-15T08:31:06.427Z,74.26
2017-02-15T08:31:46.921Z,74.16
2017-02-15T08:32:27.437Z,73.59
2017-02-15T08:33:07.907Z,72.83
2017-02-15T08:33:49.345Z,72.39
2017-02-15T08:34:29.875Z,71.82
2017-02-15T08:35:10.414Z,70.77
2017-02-15T08:35:51.110Z,70.39
2017-02-15T08:36:31.488Z,70.2
2017-02-15T08:37:11.988Z,75.43
2017-02-15T08:37:52.714Z,81.38
2017-02-15T08:38:33.234Z,81.96
2017-02-15T08:39:13.759Z,82.62
2017-02-15T08:39:54.213Z,83.29
2017-02-15T08:40:34.744Z,83.48
2017-02-15T08:41:15.221Z,80.44
2017-02-15T08:41:55.756Z,76.48
2017-02-15T08:42:36.291Z,73.53
2017-02-15T08:43:16.793Z,72.01
2017-02-15T08:43:57.322Z,70.49
2017-02-15T08:44:37.836Z,69.63
2017-02-15T08:45:18.316Z,69.73
2017-02-15T08:45:58.808Z,68.59
2017-02-15T08:46:39.289Z,67.44